sensor_id;sensor_type;location;lat;lon;timestamp;P1;durP1;ratioP1;P2;durP2;ratioP2
51738;SDS011;37815;52.692;6.226;2022-07-23T00:00:53;1.55;;;1.00;;
51738;SDS011;37815;52.692;6.226;2022-07-23T00:05:54;1.33;;;1.00;;
51738;SDS011;37815;52.692;6.226;2022-07-23T00:10:55;1.15;;;1.02;;
51738;SDS011;37815;52.692;6.226;2022-07-23T00:15:56;3.00;;;1.17;;
51738;SDS011;37815;52.692;6.226;2022-07-23T00:20:56;1.10;;;1.00;;
51738;SDS011;37815;52.692;6.226;2022-07-23T00:25:57;1.40;;;0.90;;
51738;SDS011;37815;52.692;6.226;2022-07-23T00:30:58;1.92;;;0.90;;
51738;SDS011;37815;52.692;6.226;2022-07-23T00:35:58;2.28;;;0.93;;
51738;SDS011;37815;52.692;6.226;2022-07-23T00:40:59;1.50;;;1.00;;
51738;SDS011;37815;52.692;6.226;2022-07-23T00:46:00;1.30;;;0.85;;
51738;SDS011;37815;52.692;6.226;2022-07-23T00:51:00;1.33;;;0.82;;
51738;SDS011;37815;52.692;6.226;2022-07-23T00:56:01;1.02;;;0.88;;
51738;SDS011;37815;52.692;6.226;2022-07-23T01:01:02;1.45;;;0.98;;
51738;SDS011;37815;52.692;6.226;2022-07-23T01:06:03;1.70;;;1.20;;
51738;SDS011;37815;52.692;6.226;2022-07-23T01:11:04;1.20;;;1.00;;
51738;SDS011;37815;52.692;6.226;2022-07-23T01:16:05;2.20;;;1.08;;
51738;SDS011;37815;52.692;6.226;2022-07-23T01:21:06;1.88;;;1.05;;
51738;SDS011;37815;52.692;6.226;2022-07-23T01:26:09;2.65;;;1.10;;
51738;SDS011;37815;52.692;6.226;2022-07-23T01:31:09;1.20;;;1.00;;
51738;SDS011;37815;52.692;6.226;2022-07-23T01:36:10;1.00;;;0.90;;
51738;SDS011;37815;52.692;6.226;2022-07-23T01:41:11;1.67;;;0.85;;
51738;SDS011;37815;52.692;6.226;2022-07-23T01:46:12;2.70;;;1.15;;
51738;SDS011;37815;52.692;6.226;2022-07-23T01:51:12;2.10;;;1.17;;
51738;SDS011;37815;52.692;6.226;2022-07-23T01:56:13;1.40;;;0.98;;
51738;SDS011;37815;52.692;6.226;2022-07-23T02:01:15;1.33;;;0.90;;
51738;SDS011;37815;52.692;6.226;2022-07-23T02:06:15;0.82;;;0.82;;
51738;SDS011;37815;52.692;6.226;2022-07-23T02:11:16;0.88;;;0.82;;
51738;SDS011;37815;52.692;6.226;2022-07-23T02:16:17;2.10;;;0.93;;
51738;SDS011;37815;52.692;6.226;2022-07-23T02:21:17;2.17;;;0.90;;
51738;SDS011;37815;52.692;6.226;2022-07-23T02:26:18;1.30;;;1.00;;
51738;SDS011;37815;52.692;6.226;2022-07-23T02:31:19;1.67;;;1.05;;
51738;SDS011;37815;52.692;6.226;2022-07-23T02:36:20;3.15;;;0.98;;
51738;SDS011;37815;52.692;6.226;2022-07-23T02:41:21;1.30;;;0.80;;
51738;SDS011;37815;52.692;6.226;2022-07-23T02:46:22;1.83;;;0.95;;
51738;SDS011;37815;52.692;6.226;2022-07-23T02:51:22;2.10;;;1.00;;
51738;SDS011;37815;52.692;6.226;2022-07-23T02:56:23;1.67;;;0.95;;
51738;SDS011;37815;52.692;6.226;2022-07-23T03:01:24;1.00;;;0.90;;
51738;SDS011;37815;52.692;6.226;2022-07-23T03:06:25;1.92;;;0.93;;
51738;SDS011;37815;52.692;6.226;2022-07-23T03:11:25;1.10;;;1.00;;
51738;SDS011;37815;52.692;6.226;2022-07-23T03:16:26;2.50;;;1.00;;
51738;SDS011;37815;52.692;6.226;2022-07-23T03:21:27;1.30;;;0.98;;
51738;SDS011;37815;52.692;6.226;2022-07-23T03:26:27;1.00;;;0.90;;
51738;SDS011;37815;52.692;6.226;2022-07-23T03:31:29;1.05;;;0.95;;
51738;SDS011;37815;52.692;6.226;2022-07-23T03:36:31;1.98;;;1.15;;
51738;SDS011;37815;52.692;6.226;2022-07-23T03:41:32;1.02;;;0.80;;
51738;SDS011;37815;52.692;6.226;2022-07-23T03:46:32;2.08;;;1.30;;
51738;SDS011;37815;52.692;6.226;2022-07-23T03:51:33;1.05;;;0.93;;
51738;SDS011;37815;52.692;6.226;2022-07-23T03:56:34;1.63;;;0.90;;
51738;SDS011;37815;52.692;6.226;2022-07-23T04:01:35;0.93;;;0.70;;
51738;SDS011;37815;52.692;6.226;2022-07-23T04:06:36;0.70;;;0.68;;
51738;SDS011;37815;52.692;6.226;2022-07-23T04:11:37;1.15;;;0.90;;
51738;SDS011;37815;52.692;6.226;2022-07-23T04:47:39;0.65;;;0.60;;
51738;SDS011;37815;52.692;6.226;2022-07-23T04:52:40;1.33;;;0.60;;
51738;SDS011;37815;52.692;6.226;2022-07-23T04:57:41;0.77;;;0.70;;
51738;SDS011;37815;52.692;6.226;2022-07-23T05:02:42;0.60;;;0.60;;
51738;SDS011;37815;52.692;6.226;2022-07-23T05:07:43;1.00;;;0.65;;
51738;SDS011;37815;52.692;6.226;2022-07-23T05:12:44;0.70;;;0.70;;
51738;SDS011;37815;52.692;6.226;2022-07-23T05:17:44;1.40;;;0.90;;
51738;SDS011;37815;52.692;6.226;2022-07-23T05:22:45;1.23;;;0.57;;
51738;SDS011;37815;52.692;6.226;2022-07-23T05:27:46;3.55;;;0.82;;
51738;SDS011;37815;52.692;6.226;2022-07-23T05:32:47;1.70;;;0.60;;
51738;SDS011;37815;52.692;6.226;2022-07-23T05:37:48;1.77;;;0.60;;
51738;SDS011;37815;52.692;6.226;2022-07-23T05:42:48;1.00;;;0.57;;
51738;SDS011;37815;52.692;6.226;2022-07-23T05:47:49;0.68;;;0.55;;
51738;SDS011;37815;52.692;6.226;2022-07-23T05:52:50;0.70;;;0.60;;
51738;SDS011;37815;52.692;6.226;2022-07-23T05:57:51;1.23;;;0.60;;
51738;SDS011;37815;52.692;6.226;2022-07-23T06:02:51;1.38;;;0.60;;
51738;SDS011;37815;52.692;6.226;2022-07-23T06:07:54;1.25;;;0.60;;
51738;SDS011;37815;52.692;6.226;2022-07-23T06:12:56;0.90;;;0.77;;
51738;SDS011;37815;52.692;6.226;2022-07-23T06:38:38;1.92;;;0.80;;
51738;SDS011;37815;52.692;6.226;2022-07-23T06:43:39;0.70;;;0.70;;
51738;SDS011;37815;52.692;6.226;2022-07-23T06:48:39;2.95;;;0.90;;
51738;SDS011;37815;52.692;6.226;2022-07-23T06:53:40;0.77;;;0.60;;
51738;SDS011;37815;52.692;6.226;2022-07-23T06:58:41;0.60;;;0.60;;
51738;SDS011;37815;52.692;6.226;2022-07-23T07:03:41;0.85;;;0.70;;
51738;SDS011;37815;52.692;6.226;2022-07-23T07:08:42;1.50;;;0.77;;
51738;SDS011;37815;52.692;6.226;2022-07-23T07:13:43;4.03;;;0.90;;
51738;SDS011;37815;52.692;6.226;2022-07-23T07:18:44;0.90;;;0.60;;
51738;SDS011;37815;52.692;6.226;2022-07-23T07:23:45;2.35;;;1.08;;
51738;SDS011;37815;52.692;6.226;2022-07-23T07:28:46;0.73;;;0.52;;
51738;SDS011;37815;52.692;6.226;2022-07-23T07:33:46;0.73;;;0.68;;
51738;SDS011;37815;52.692;6.226;2022-07-23T07:38:47;0.80;;;0.70;;
51738;SDS011;37815;52.692;6.226;2022-07-23T07:43:51;3.00;;;1.00;;
51738;SDS011;37815;52.692;6.226;2022-07-23T07:48:52;0.88;;;0.68;;
51738;SDS011;37815;52.692;6.226;2022-07-23T07:53:52;0.60;;;0.60;;
51738;SDS011;37815;52.692;6.226;2022-07-23T07:58:53;1.40;;;0.80;;
51738;SDS011;37815;52.692;6.226;2022-07-23T08:03:54;0.90;;;0.60;;
51738;SDS011;37815;52.692;6.226;2022-07-23T08:08:55;1.10;;;0.80;;
51738;SDS011;37815;52.692;6.226;2022-07-23T08:13:55;0.70;;;0.60;;
51738;SDS011;37815;52.692;6.226;2022-07-23T08:18:56;0.73;;;0.60;;
51738;SDS011;37815;52.692;6.226;2022-07-23T08:23:57;0.60;;;0.60;;
51738;SDS011;37815;52.692;6.226;2022-07-23T08:28:58;1.15;;;0.70;;
51738;SDS011;37815;52.692;6.226;2022-07-23T08:34:01;0.65;;;0.65;;
51738;SDS011;37815;52.692;6.226;2022-07-23T08:39:02;1.48;;;0.68;;
51738;SDS011;37815;52.692;6.226;2022-07-23T08:44:03;1.10;;;0.55;;
51738;SDS011;37815;52.692;6.226;2022-07-23T08:49:07;1.25;;;0.60;;
51738;SDS011;37815;52.692;6.226;2022-07-23T08:54:08;3.40;;;1.00;;
51738;SDS011;37815;52.692;6.226;2022-07-23T08:59:09;1.17;;;0.80;;
51738;SDS011;37815;52.692;6.226;2022-07-23T09:04:13;1.95;;;0.90;;
51738;SDS011;37815;52.692;6.226;2022-07-23T09:09:17;1.35;;;0.70;;
51738;SDS011;37815;52.692;6.226;2022-07-23T09:14:35;2.25;;;0.70;;
51738;SDS011;37815;52.692;6.226;2022-07-23T09:19:43;2.17;;;0.63;;
51738;SDS011;37815;52.692;6.226;2022-07-23T09:30:07;1.48;;;0.85;;
51738;SDS011;37815;52.692;6.226;2022-07-23T09:35:08;1.48;;;0.70;;
51738;SDS011;37815;52.692;6.226;2022-07-23T09:40:10;0.73;;;0.70;;
51738;SDS011;37815;52.692;6.226;2022-07-23T09:45:13;0.93;;;0.80;;
51738;SDS011;37815;52.692;6.226;2022-07-23T09:50:13;1.92;;;0.88;;
51738;SDS011;37815;52.692;6.226;2022-07-23T10:28:00;1.00;;;0.90;;
51738;SDS011;37815;52.692;6.226;2022-07-23T11:24:52;2.38;;;1.23;;
51738;SDS011;37815;52.692;6.226;2022-07-23T11:40:17;2.55;;;0.90;;
51738;SDS011;37815;52.692;6.226;2022-07-23T11:45:18;1.83;;;1.20;;
51738;SDS011;37815;52.692;6.226;2022-07-23T11:50:19;1.05;;;1.00;;
51738;SDS011;37815;52.692;6.226;2022-07-23T11:55:23;2.13;;;1.30;;
51738;SDS011;37815;52.692;6.226;2022-07-23T12:00:25;1.45;;;1.20;;
51738;SDS011;37815;52.692;6.226;2022-07-23T12:05:31;2.30;;;1.27;;
51738;SDS011;37815;52.692;6.226;2022-07-23T12:15:35;1.70;;;1.20;;
51738;SDS011;37815;52.692;6.226;2022-07-23T12:20:40;2.72;;;1.30;;
51738;SDS011;37815;52.692;6.226;2022-07-23T12:25:43;1.85;;;1.35;;
51738;SDS011;37815;52.692;6.226;2022-07-23T12:30:52;1.85;;;1.45;;
51738;SDS011;37815;52.692;6.226;2022-07-23T12:35:54;1.60;;;1.30;;
51738;SDS011;37815;52.692;6.226;2022-07-23T12:40:58;2.47;;;1.40;;
51738;SDS011;37815;52.692;6.226;2022-07-23T12:51:14;1.35;;;1.05;;
51738;SDS011;37815;52.692;6.226;2022-07-23T12:56:20;1.52;;;1.10;;
51738;SDS011;37815;52.692;6.226;2022-07-23T13:01:34;2.22;;;1.10;;
51738;SDS011;37815;52.692;6.226;2022-07-23T13:06:41;3.45;;;1.13;;
51738;SDS011;37815;52.692;6.226;2022-07-23T13:11:44;1.48;;;1.20;;
51738;SDS011;37815;52.692;6.226;2022-07-23T13:16:48;1.65;;;1.20;;
51738;SDS011;37815;52.692;6.226;2022-07-23T13:21:50;1.75;;;1.02;;
51738;SDS011;37815;52.692;6.226;2022-07-23T13:26:51;1.20;;;1.05;;
51738;SDS011;37815;52.692;6.226;2022-07-23T13:31:52;1.98;;;1.00;;
51738;SDS011;37815;52.692;6.226;2022-07-23T13:36:52;2.17;;;0.93;;
51738;SDS011;37815;52.692;6.226;2022-07-23T13:41:53;1.52;;;1.15;;
51738;SDS011;37815;52.692;6.226;2022-07-23T13:46:54;1.83;;;1.20;;
51738;SDS011;37815;52.692;6.226;2022-07-23T13:51:55;2.70;;;1.25;;
51738;SDS011;37815;52.692;6.226;2022-07-23T13:56:57;1.35;;;1.08;;
51738;SDS011;37815;52.692;6.226;2022-07-23T14:01:57;1.75;;;1.00;;
51738;SDS011;37815;52.692;6.226;2022-07-23T14:06:59;1.70;;;1.20;;
51738;SDS011;37815;52.692;6.226;2022-07-23T14:17:10;2.65;;;1.30;;
51738;SDS011;37815;52.692;6.226;2022-07-23T14:22:11;1.95;;;1.50;;
51738;SDS011;37815;52.692;6.226;2022-07-23T14:27:12;1.50;;;1.20;;
51738;SDS011;37815;52.692;6.226;2022-07-23T14:32:13;2.25;;;1.42;;
51738;SDS011;37815;52.692;6.226;2022-07-23T14:37:14;1.90;;;1.35;;
51738;SDS011;37815;52.692;6.226;2022-07-23T14:42:15;1.33;;;1.20;;
51738;SDS011;37815;52.692;6.226;2022-07-23T14:47:15;1.65;;;0.95;;
51738;SDS011;37815;52.692;6.226;2022-07-23T14:52:16;1.48;;;1.23;;
51738;SDS011;37815;52.692;6.226;2022-07-23T14:57:17;2.13;;;1.40;;
51738;SDS011;37815;52.692;6.226;2022-07-23T15:28:58;1.73;;;1.45;;
51738;SDS011;37815;52.692;6.226;2022-07-23T15:33:59;1.30;;;1.20;;
51738;SDS011;37815;52.692;6.226;2022-07-23T15:39:00;2.03;;;1.25;;
51738;SDS011;37815;52.692;6.226;2022-07-23T15:44:00;2.50;;;1.50;;
51738;SDS011;37815;52.692;6.226;2022-07-23T15:49:02;3.10;;;1.25;;
51738;SDS011;37815;52.692;6.226;2022-07-23T15:54:03;2.17;;;1.40;;
51738;SDS011;37815;52.692;6.226;2022-07-23T15:59:04;2.40;;;1.30;;
51738;SDS011;37815;52.692;6.226;2022-07-23T16:04:05;2.17;;;1.38;;
51738;SDS011;37815;52.692;6.226;2022-07-23T16:09:05;2.33;;;1.50;;
51738;SDS011;37815;52.692;6.226;2022-07-23T16:14:06;3.03;;;1.05;;
51738;SDS011;37815;52.692;6.226;2022-07-23T16:19:07;4.45;;;1.40;;
51738;SDS011;37815;52.692;6.226;2022-07-23T16:24:08;2.42;;;1.05;;
51738;SDS011;37815;52.692;6.226;2022-07-23T16:29:12;1.98;;;1.50;;
51738;SDS011;37815;52.692;6.226;2022-07-23T16:34:12;2.00;;;1.30;;
51738;SDS011;37815;52.692;6.226;2022-07-23T16:39:13;2.85;;;1.50;;
51738;SDS011;37815;52.692;6.226;2022-07-23T16:44:14;2.05;;;1.40;;
51738;SDS011;37815;52.692;6.226;2022-07-23T16:49:15;1.48;;;1.35;;
51738;SDS011;37815;52.692;6.226;2022-07-23T16:54:15;1.75;;;1.50;;
51738;SDS011;37815;52.692;6.226;2022-07-23T16:59:16;2.55;;;1.60;;
51738;SDS011;37815;52.692;6.226;2022-07-23T17:04:18;3.25;;;1.35;;
51738;SDS011;37815;52.692;6.226;2022-07-23T17:09:18;2.90;;;1.63;;
51738;SDS011;37815;52.692;6.226;2022-07-23T17:14:19;2.85;;;1.30;;
51738;SDS011;37815;52.692;6.226;2022-07-23T17:19:20;1.30;;;1.20;;
51738;SDS011;37815;52.692;6.226;2022-07-23T17:24:21;3.72;;;1.88;;
51738;SDS011;37815;52.692;6.226;2022-07-23T17:29:22;1.88;;;1.33;;
51738;SDS011;37815;52.692;6.226;2022-07-23T17:34:22;1.55;;;1.25;;
51738;SDS011;37815;52.692;6.226;2022-07-23T17:39:23;3.20;;;1.42;;
51738;SDS011;37815;52.692;6.226;2022-07-23T17:44:24;1.73;;;1.42;;
51738;SDS011;37815;52.692;6.226;2022-07-23T17:49:25;2.10;;;1.75;;
51738;SDS011;37815;52.692;6.226;2022-07-23T17:54:26;2.75;;;1.90;;
51738;SDS011;37815;52.692;6.226;2022-07-23T17:59:27;3.00;;;1.70;;
51738;SDS011;37815;52.692;6.226;2022-07-23T18:04:27;2.08;;;1.80;;
51738;SDS011;37815;52.692;6.226;2022-07-23T18:09:28;2.15;;;1.50;;
51738;SDS011;37815;52.692;6.226;2022-07-23T18:14:29;2.25;;;1.60;;
51738;SDS011;37815;52.692;6.226;2022-07-23T18:19:29;1.70;;;1.60;;
51738;SDS011;37815;52.692;6.226;2022-07-23T18:24:30;1.67;;;1.50;;
51738;SDS011;37815;52.692;6.226;2022-07-23T18:29:31;1.88;;;1.50;;
51738;SDS011;37815;52.692;6.226;2022-07-23T18:34:32;5.40;;;1.98;;
51738;SDS011;37815;52.692;6.226;2022-07-23T19:46:47;3.25;;;1.60;;
51738;SDS011;37815;52.692;6.226;2022-07-23T19:51:48;2.38;;;1.70;;
51738;SDS011;37815;52.692;6.226;2022-07-23T19:56:49;4.70;;;1.80;;
51738;SDS011;37815;52.692;6.226;2022-07-23T20:01:50;2.83;;;1.73;;
51738;SDS011;37815;52.692;6.226;2022-07-23T20:06:50;2.90;;;1.70;;
51738;SDS011;37815;52.692;6.226;2022-07-23T20:11:51;2.90;;;1.83;;
51738;SDS011;37815;52.692;6.226;2022-07-23T20:16:52;2.97;;;1.85;;
51738;SDS011;37815;52.692;6.226;2022-07-23T20:21:52;1.83;;;1.55;;
51738;SDS011;37815;52.692;6.226;2022-07-23T20:26:54;3.25;;;2.30;;
51738;SDS011;37815;52.692;6.226;2022-07-23T20:31:54;2.47;;;2.10;;
51738;SDS011;37815;52.692;6.226;2022-07-23T20:36:55;2.05;;;1.50;;
51738;SDS011;37815;52.692;6.226;2022-07-23T20:41:56;3.28;;;1.75;;
51738;SDS011;37815;52.692;6.226;2022-07-23T20:46:56;2.05;;;1.52;;
51738;SDS011;37815;52.692;6.226;2022-07-23T20:51:57;2.13;;;1.52;;
51738;SDS011;37815;52.692;6.226;2022-07-23T20:56:58;1.98;;;1.55;;
51738;SDS011;37815;52.692;6.226;2022-07-23T21:01:59;2.40;;;1.63;;
51738;SDS011;37815;52.692;6.226;2022-07-23T21:06:59;2.83;;;1.70;;
51738;SDS011;37815;52.692;6.226;2022-07-23T21:12:00;2.83;;;1.80;;
51738;SDS011;37815;52.692;6.226;2022-07-23T21:17:01;1.83;;;1.45;;
51738;SDS011;37815;52.692;6.226;2022-07-23T21:22:02;2.83;;;1.60;;
51738;SDS011;37815;52.692;6.226;2022-07-23T21:27:02;2.35;;;1.63;;
51738;SDS011;37815;52.692;6.226;2022-07-23T21:32:04;2.20;;;1.63;;
51738;SDS011;37815;52.692;6.226;2022-07-23T21:37:05;3.00;;;1.67;;
51738;SDS011;37815;52.692;6.226;2022-07-23T21:42:06;2.13;;;1.80;;
51738;SDS011;37815;52.692;6.226;2022-07-23T21:47:07;2.55;;;1.80;;
51738;SDS011;37815;52.692;6.226;2022-07-23T21:52:08;2.33;;;1.70;;
51738;SDS011;37815;52.692;6.226;2022-07-23T21:57:09;1.58;;;1.48;;
51738;SDS011;37815;52.692;6.226;2022-07-23T22:02:09;3.15;;;1.90;;
51738;SDS011;37815;52.692;6.226;2022-07-23T22:07:10;2.13;;;1.80;;
51738;SDS011;37815;52.692;6.226;2022-07-23T22:12:13;3.55;;;1.60;;
51738;SDS011;37815;52.692;6.226;2022-07-23T22:17:14;3.35;;;1.98;;
51738;SDS011;37815;52.692;6.226;2022-07-23T22:22:15;3.20;;;1.85;;
51738;SDS011;37815;52.692;6.226;2022-07-23T22:27:16;2.80;;;1.75;;
51738;SDS011;37815;52.692;6.226;2022-07-23T22:32:16;1.80;;;1.60;;
51738;SDS011;37815;52.692;6.226;2022-07-23T22:37:17;2.22;;;1.90;;
51738;SDS011;37815;52.692;6.226;2022-07-23T22:42:18;2.25;;;1.70;;
51738;SDS011;37815;52.692;6.226;2022-07-23T22:47:18;2.35;;;1.73;;
51738;SDS011;37815;52.692;6.226;2022-07-23T22:52:19;1.60;;;1.48;;
51738;SDS011;37815;52.692;6.226;2022-07-23T22:57:21;2.17;;;1.90;;
51738;SDS011;37815;52.692;6.226;2022-07-23T23:02:22;2.15;;;1.95;;
51738;SDS011;37815;52.692;6.226;2022-07-23T23:07:22;2.63;;;1.90;;
51738;SDS011;37815;52.692;6.226;2022-07-23T23:12:23;3.05;;;1.90;;
51738;SDS011;37815;52.692;6.226;2022-07-23T23:17:24;2.33;;;1.80;;
51738;SDS011;37815;52.692;6.226;2022-07-23T23:22:24;2.80;;;2.28;;
51738;SDS011;37815;52.692;6.226;2022-07-23T23:27:25;2.15;;;1.95;;
51738;SDS011;37815;52.692;6.226;2022-07-23T23:32:26;2.85;;;1.92;;
51738;SDS011;37815;52.692;6.226;2022-07-23T23:37:27;3.15;;;2.15;;
51738;SDS011;37815;52.692;6.226;2022-07-23T23:42:27;2.95;;;2.25;;
51738;SDS011;37815;52.692;6.226;2022-07-23T23:47:28;4.53;;;2.40;;
51738;SDS011;37815;52.692;6.226;2022-07-23T23:52:29;2.50;;;2.13;;
51738;SDS011;37815;52.692;6.226;2022-07-23T23:57:29;3.25;;;2.10;;
